Time;durP1;ratioP1;P1;durP2;ratioP2;P2;SDS_P1;SDS_P2;PMS_P1;PMS_P2;Temp;Humidity;BMP_temperature;BMP_pressure;BME280_temperature;BME280_humidity;BME280_pressure;Samples;Min_cycle;Max_cycle;Signal;HPM_P1;HPM_P2
2024/01/02 00:01:15;;;;;;;34.00;20.13;;;;;;;7.62;78.97;96680.84;4892602;29;20210;-67
2024/01/02 00:03:42;;;;;;;33.90;20.63;;;;;;;7.83;79.72;96734.13;4893427;29;20580;-68
2024/01/02 00:06:14;;;;;;;33.93;20.07;;;;;;;7.88;79.52;96735.59;4893778;29;20302;-68
2024/01/02 00:08:41;;;;;;;32.50;21.10;;;;;;;7.88;79.64;96748.50;4893185;29;20285;-69
2024/01/02 00:11:09;;;;;;;30.60;20.83;;;;;;;7.55;79.33;96685.41;4893838;29;20769;-65
2024/01/02 00:13:36;;;;;;;33.80;21.23;;;;;;;8.03;78.91;96745.31;4892282;29;20250;-67
2024/01/02 00:16:04;;;;;;;35.00;21.17;;;;;;;8.04;79.09;96730.66;4893432;29;20239;-68
2024/01/02 00:18:35;;;;;;;36.50;22.50;;;;;;;7.94;78.99;96744.81;4892517;29;20230;-69
2024/01/02 00:21:02;;;;;;;37.80;22.47;;;;;;;7.87;80.02;96739.06;4877075;29;20199;-69
2024/01/02 00:23:30;;;;;;;33.57;21.13;;;;;;;7.73;80.70;96732.81;4893281;29;20246;-66
2024/01/02 00:25:57;;;;;;;36.40;21.63;;;;;;;7.83;79.72;96750.41;4892716;29;20207;-68
2024/01/02 00:28:24;;;;;;;32.17;20.93;;;;;;;7.85;79.71;96737.47;4893409;29;20294;-68
2024/01/02 00:30:52;;;;;;;33.17;19.83;;;;;;;7.82;79.96;96746.16;4906580;29;20199;-67
2024/01/02 00:33:19;;;;;;;29.50;18.87;;;;;;;7.47;80.61;96733.81;4892000;29;20265;-66
2024/01/02 00:35:46;;;;;;;30.90;18.50;;;;;;;7.67;80.54;96736.44;4892293;29;20274;-65
2024/01/02 00:38:15;;;;;;;32.00;20.07;;;;;;;7.50;80.68;96710.50;4891760;29;20205;-65
2024/01/02 00:40:42;;;;;;;34.27;20.43;;;;;;;7.68;80.54;96739.88;4891700;29;20241;-69
2024/01/02 00:43:09;;;;;;;33.83;20.60;;;;;;;7.54;82.15;96718.97;4892282;29;20569;-69
2024/01/02 00:45:36;;;;;;;30.27;18.93;;;;;;;7.42;82.54;96719.44;4893163;29;20271;-68
2024/01/02 00:48:04;;;;;;;29.60;19.17;;;;;;;7.16;82.84;96684.38;4890531;29;20199;-68
2024/01/02 00:50:31;;;;;;;31.90;19.30;;;;;;;7.42;82.55;96715.09;4907267;29;20710;-66
2024/01/02 00:53:03;;;;;;;29.23;18.40;;;;;;;7.49;81.60;96718.28;4890714;29;20205;-67
2024/01/02 00:55:31;;;;;;;32.07;19.53;;;;;;;7.50;82.01;96723.38;4891331;29;20270;-69
2024/01/02 00:57:58;;;;;;;32.03;19.23;;;;;;;7.69;81.75;96729.50;4892775;29;20192;-68
2024/01/02 01:00:26;;;;;;;27.40;17.60;;;;;;;7.71;81.29;96725.13;4891999;29;20230;-67
2024/01/02 01:02:53;;;;;;;33.43;18.57;;;;;;;7.80;80.92;96717.03;4892979;29;20221;-69
2024/01/02 01:05:20;;;;;;;29.43;18.80;;;;;;;7.82;80.25;96712.66;4891543;29;20203;-68
2024/01/02 01:07:47;;;;;;;27.10;18.93;;;;;;;7.71;80.26;96704.50;4892517;29;20298;-67
2024/01/02 01:10:16;;;;;;;28.03;18.27;;;;;;;7.79;80.29;96692.13;4891701;29;20195;-68
2024/01/02 01:12:47;;;;;;;29.83;19.63;;;;;;;7.83;80.65;96695.44;4892321;29;20234;-68
2024/01/02 01:15:14;;;;;;;30.63;18.83;;;;;;;7.89;80.03;96711.47;4892619;29;20539;-68
2024/01/02 01:17:41;;;;;;;30.83;18.30;;;;;;;7.45;80.54;96660.06;4889572;29;20235;-71
2024/01/02 01:20:09;;;;;;;26.53;17.40;;;;;;;7.49;81.23;96689.94;4906775;29;20204;-68
2024/01/02 01:22:36;;;;;;;26.90;18.00;;;;;;;7.35;81.57;96693.91;4889670;29;20255;-67
2024/01/02 01:25:04;;;;;;;33.77;19.30;;;;;;;7.07;83.65;96690.69;4892542;29;20207;-66
2024/01/02 01:27:30;;;;;;;26.07;17.77;;;;;;;7.18;83.10;96687.72;4891317;29;20271;-68
2024/01/02 01:30:01;;;;;;;30.03;18.47;;;;;;;7.40;83.03;96693.72;4890912;29;20235;-68
2024/01/02 01:32:29;;;;;;;25.97;17.80;;;;;;;7.58;81.42;96702.47;4891891;29;20215;-68
2024/01/02 01:34:56;;;;;;;28.53;18.67;;;;;;;7.55;81.54;96710.31;4891276;29;20539;-66
2024/01/02 01:37:23;;;;;;;29.00;18.97;;;;;;;7.69;81.36;96711.44;4892226;29;20318;-68
2024/01/02 01:39:51;;;;;;;31.57;18.13;;;;;;;7.65;80.49;96709.03;4891155;29;20219;-68
2024/01/02 01:42:18;;;;;;;33.73;20.80;;;;;;;7.68;79.90;96685.75;4890911;29;20204;-67
2024/01/02 01:44:45;;;;;;;34.93;20.73;;;;;;;7.60;80.51;96706.69;4891380;29;20635;-70
2024/01/02 01:47:12;;;;;;;28.27;19.30;;;;;;;7.55;80.15;96697.44;4891194;29;20195;-69
2024/01/02 01:49:39;;;;;;;30.77;19.93;;;;;;;7.37;81.53;96697.28;4890059;29;20195;-63
2024/01/02 01:52:08;;;;;;;34.90;20.83;;;;;;;7.50;81.11;96692.44;4889720;29;20203;-68
2024/01/02 01:54:35;;;;;;;34.90;20.57;;;;;;;7.48;80.63;96676.22;4891142;29;20250;-68
2024/01/02 01:57:04;;;;;;;33.87;19.90;;;;;;;7.31;81.45;96688.94;4905151;29;20293;-67
2024/01/02 01:59:32;;;;;;;34.00;20.77;;;;;;;7.23;82.22;96688.41;4890581;29;20296;-66
2024/01/02 02:02:00;;;;;;;31.33;18.93;;;;;;;6.64;82.12;96626.28;4889267;29;20199;-68
2024/01/02 02:04:31;;;;;;;34.63;20.33;;;;;;;6.91;83.13;96670.72;4890234;29;20205;-68
2024/01/02 02:06:59;;;;;;;32.07;20.50;;;;;;;7.10;83.16;96680.28;4891077;29;20203;-65
2024/01/02 02:09:25;;;;;;;30.93;19.97;;;;;;;7.17;82.45;96662.88;4889466;29;20191;-67
2024/01/02 02:11:54;;;;;;;33.23;19.60;;;;;;;7.05;83.58;96673.63;4891650;29;20701;-66
2024/01/02 02:14:21;;;;;;;31.73;20.13;;;;;;;6.94;84.34;96681.78;4888648;29;20245;-65
2024/01/02 02:16:49;;;;;;;36.40;19.93;;;;;;;6.75;84.50;96675.63;4891427;29;20256;-66
2024/01/02 02:19:16;;;;;;;30.00;19.03;;;;;;;6.74;84.30;96676.50;4888999;29;20191;-66
2024/01/02 02:21:49;;;;;;;29.90;18.37;;;;;;;6.83;84.48;96686.47;4890057;29;20203;-62
2024/01/02 02:24:17;;;;;;;27.00;15.33;;;;;;;6.78;85.34;96684.97;4889875;29;20208;-65
2024/01/02 02:26:44;;;;;;;21.70;13.87;;;;;;;6.63;84.91;96675.22;4889346;29;20271;-62
2024/01/02 02:29:11;;;;;;;22.63;13.73;;;;;;;6.62;85.73;96674.38;4891460;29;20218;-64
2024/01/02 02:31:38;;;;;;;22.80;13.23;;;;;;;6.67;84.96;96663.91;4890221;29;20222;-64
2024/01/02 02:34:05;;;;;;;22.30;13.07;;;;;;;6.86;84.65;96655.44;4891719;29;20198;-64
2024/01/02 02:36:33;;;;;;;23.97;14.33;;;;;;;6.98;84.21;96656.75;4890296;29;20239;-67
2024/01/02 02:39:00;;;;;;;21.70;14.17;;;;;;;6.94;84.58;96650.03;4889856;29;20233;-69
2024/01/02 02:41:27;;;;;;;23.60;13.97;;;;;;;7.12;83.19;96657.91;4889462;29;20372;-69
2024/01/02 02:43:54;;;;;;;21.67;14.83;;;;;;;7.13;83.28;96648.44;4890545;29;20291;-66
2024/01/02 02:46:21;;;;;;;23.43;14.30;;;;;;;7.24;83.57;96656.59;4890887;29;20566;-68
2024/01/02 02:48:48;;;;;;;23.73;15.93;;;;;;;7.37;82.54;96658.63;4889880;29;20551;-68
2024/01/02 02:51:15;;;;;;;22.43;14.33;;;;;;;7.36;81.79;96669.81;4891228;29;20237;-68
2024/01/02 02:53:42;;;;;;;23.63;15.13;;;;;;;7.24;81.44;96654.84;4889991;29;20215;-69
2024/01/02 02:56:15;;;;;;;24.93;16.43;;;;;;;7.44;81.63;96666.13;4889865;29;20219;-67
2024/01/02 02:58:42;;;;;;;25.80;16.20;;;;;;;7.47;80.96;96666.81;4890493;29;20771;-69
2024/01/02 03:01:20;;;;;;;24.00;15.73;;;;;;;7.30;81.20;96669.22;4890399;29;20192;-69
2024/01/02 03:03:47;;;;;;;26.37;15.23;;;;;;;7.23;81.96;96673.75;4889890;29;20205;-65
2024/01/02 03:06:14;;;;;;;24.70;15.13;;;;;;;7.22;81.88;96653.22;4889961;29;20504;-64
2024/01/02 03:08:42;;;;;;;25.03;16.10;;;;;;;7.24;81.31;96672.03;4890941;29;20210;-65
2024/01/02 03:11:09;;;;;;;25.93;15.23;;;;;;;7.32;81.17;96657.13;4890009;29;20639;-69
2024/01/02 03:13:36;;;;;;;24.60;14.43;;;;;;;7.36;80.49;96669.81;4890698;29;20694;-70
2024/01/02 03:16:03;;;;;;;21.73;14.57;;;;;;;6.78;82.61;96657.47;4890376;29;20668;-68
2024/01/02 03:18:30;;;;;;;26.10;15.40;;;;;;;6.87;83.56;96670.00;4889915;29;20254;-68
2024/01/02 03:20:58;;;;;;;23.07;14.90;;;;;;;6.88;82.75;96660.56;4890867;29;20292;-69
2024/01/02 03:23:24;;;;;;;28.33;14.63;;;;;;;6.83;83.99;96667.59;4888448;29;20745;-65
2024/01/02 03:25:52;;;;;;;25.13;15.80;;;;;;;7.00;83.71;96678.97;4890770;29;20364;-63
2024/01/02 03:28:19;;;;;;;22.67;15.03;;;;;;;7.15;82.73;96669.81;4889469;29;20301;-64
2024/01/02 03:30:46;;;;;;;22.83;14.27;;;;;;;7.13;83.20;96675.00;4891039;29;20205;-65
2024/01/02 03:33:13;;;;;;;21.80;13.93;;;;;;;7.11;83.35;96663.94;4890288;29;20212;-67
2024/01/02 03:35:40;;;;;;;23.63;15.57;;;;;;;7.12;82.85;96673.34;4890164;29;20202;-64
2024/01/02 03:38:07;;;;;;;28.97;18.47;;;;;;;7.17;83.37;96676.56;4890550;29;20235;-64
2024/01/02 03:40:35;;;;;;;29.83;19.67;;;;;;;7.27;82.21;96674.50;4890295;29;20282;-67
2024/01/02 03:43:02;;;;;;;29.57;16.07;;;;;;;7.23;82.79;96671.19;4894014;29;20212;-64
2024/01/02 03:45:29;;;;;;;29.53;18.70;;;;;;;7.28;81.84;96677.00;4892987;29;20213;-64
2024/01/02 03:47:56;;;;;;;34.60;18.87;;;;;;;7.27;81.87;96680.47;4892736;29;20252;-63
2024/01/02 03:50:23;;;;;;;32.33;18.40;;;;;;;7.27;82.58;96687.38;4892924;29;20199;-66
2024/01/02 03:52:50;;;;;;;30.87;17.83;;;;;;;7.31;82.32;96691.50;4892515;29;20762;-65
2024/01/02 03:55:17;;;;;;;26.70;16.23;;;;;;;7.25;82.74;96686.59;4893661;29;20215;-66
2024/01/02 03:57:44;;;;;;;27.07;15.37;;;;;;;7.37;81.70;96681.81;4892753;29;20853;-69
2024/01/02 04:00:12;;;;;;;24.30;14.97;;;;;;;7.30;82.11;96674.38;4894016;29;20192;-64
2024/01/02 04:02:39;;;;;;;21.93;15.13;;;;;;;7.39;81.17;96662.00;4892497;29;20222;-65
2024/01/02 04:05:10;;;;;;;28.23;17.63;;;;;;;7.61;80.70;96669.69;4893682;29;20274;-62
2024/01/02 04:07:41;;;;;;;25.17;16.30;;;;;;;7.36;81.91;96674.13;4892724;29;20964;-63
2024/01/02 04:10:08;;;;;;;33.40;18.60;;;;;;;7.08;82.63;96666.66;4893406;29;20298;-64
2024/01/02 04:12:36;;;;;;;34.60;20.03;;;;;;;7.31;82.70;96684.63;4891964;29;20303;-64
2024/01/02 04:15:03;;;;;;;32.00;18.13;;;;;;;7.31;81.40;96676.91;4892466;29;20299;-62
2024/01/02 04:17:30;;;;;;;24.90;14.37;;;;;;;7.11;83.12;96673.41;4893369;29;20282;-64
2024/01/02 04:19:57;;;;;;;19.87;13.23;;;;;;;7.02;82.81;96673.75;4892216;29;20265;-67
2024/01/02 04:22:25;;;;;;;19.43;12.40;;;;;;;6.96;84.01;96669.69;4892175;29;20196;-67
2024/01/02 04:24:52;;;;;;;19.50;12.13;;;;;;;6.91;84.49;96666.44;4892533;29;20679;-64
2024/01/02 04:27:19;;;;;;;17.93;12.33;;;;;;;6.94;84.11;96675.78;4891628;29;20709;-67
2024/01/02 04:29:46;;;;;;;20.67;12.33;;;;;;;6.81;84.36;96633.38;4893200;29;20749;-69
2024/01/02 04:32:15;;;;;;;19.07;11.90;;;;;;;6.98;84.25;96651.59;4892589;29;20762;-63
2024/01/02 04:34:42;;;;;;;16.20;11.13;;;;;;;7.16;84.37;96671.50;4893214;29;20213;-65
2024/01/02 04:37:10;;;;;;;16.53;12.23;;;;;;;7.18;84.10;96674.84;4891843;29;20226;-68
2024/01/02 04:39:37;;;;;;;20.33;14.27;;;;;;;7.24;83.88;96670.31;4877834;29;20207;-65
2024/01/02 04:42:04;;;;;;;18.20;11.70;;;;;;;7.28;83.66;96679.59;4873805;29;20593;-68
2024/01/02 04:44:31;;;;;;;18.17;12.47;;;;;;;7.26;82.29;96649.63;4874229;29;20192;-67
2024/01/02 04:46:58;;;;;;;20.50;13.10;;;;;;;7.39;83.00;96681.75;4874167;29;20208;-68
2024/01/02 04:49:26;;;;;;;18.47;12.80;;;;;;;7.42;83.41;96688.53;4872009;29;20192;-65
2024/01/02 04:51:53;;;;;;;24.30;14.93;;;;;;;7.52;82.58;96693.25;4873566;29;20294;-68
2024/01/02 04:54:20;;;;;;;20.83;14.47;;;;;;;7.43;82.41;96687.63;4872531;29;20808;-64
2024/01/02 04:56:47;;;;;;;20.47;13.33;;;;;;;7.42;81.98;96678.22;4874415;29;20252;-65
2024/01/02 04:59:14;;;;;;;19.40;13.50;;;;;;;7.38;82.71;96687.78;4873118;29;20185;-66
2024/01/02 05:01:41;;;;;;;23.50;14.57;;;;;;;7.54;82.77;96688.88;4874018;29;20207;-65
2024/01/02 05:04:09;;;;;;;23.50;14.90;;;;;;;7.65;81.51;96678.13;4873378;29;20192;-63
2024/01/02 05:06:39;;;;;;;24.67;15.90;;;;;;;7.39;82.08;96663.72;4871616;29;20568;-66
2024/01/02 05:09:08;;;;;;;28.30;16.90;;;;;;;7.60;82.19;96680.91;4873903;29;20216;-68
2024/01/02 05:11:38;;;;;;;30.47;17.97;;;;;;;7.63;82.08;96673.03;4872561;29;20676;-70
2024/01/02 05:14:05;;;;;;;31.07;19.63;;;;;;;7.69;81.87;96677.94;4873778;29;20240;-68
2024/01/02 05:16:32;;;;;;;33.23;20.10;;;;;;;7.63;82.51;96677.34;4872883;29;20228;-65
2024/01/02 05:18:59;;;;;;;42.33;24.40;;;;;;;7.76;81.60;96673.38;4873580;29;20207;-68
2024/01/02 05:21:27;;;;;;;55.90;28.80;;;;;;;7.70;81.58;96669.34;4872992;29;20188;-68
2024/01/02 05:23:54;;;;;;;35.07;19.63;;;;;;;7.54;81.69;96665.69;4872819;29;20196;-67
2024/01/02 05:26:21;;;;;;;35.03;20.50;;;;;;;7.42;83.22;96668.72;4873366;29;20199;-65
2024/01/02 05:28:51;;;;;;;34.43;19.63;;;;;;;7.42;82.98;96660.19;4872636;29;20212;-70
2024/01/02 05:31:26;;;;;;;37.47;22.67;;;;;;;7.51;83.03;96676.09;4872221;29;20238;-67
2024/01/02 05:33:53;;;;;;;31.37;19.63;;;;;;;7.52;82.07;96664.91;4872313;29;20224;-69
2024/01/02 05:36:20;;;;;;;29.23;20.13;;;;;;;7.61;81.77;96664.53;4873115;29;20260;-63
2024/01/02 05:38:47;;;;;;;30.67;19.43;;;;;;;7.60;82.06;96668.03;4872832;29;20224;-64
2024/01/02 05:41:14;;;;;;;32.30;17.70;;;;;;;7.42;83.14;96665.34;4872476;29;20244;-67
2024/01/02 05:43:41;;;;;;;26.47;16.73;;;;;;;7.13;83.84;96657.00;4873198;29;20560;-67
2024/01/02 05:46:08;;;;;;;30.50;19.13;;;;;;;7.33;82.61;96669.09;4870802;29;20223;-67
2024/01/02 05:48:35;;;;;;;36.03;19.17;;;;;;;7.24;83.12;96659.16;4873200;29;20285;-66
2024/01/02 05:51:04;;;;;;;29.83;18.23;;;;;;;7.17;83.28;96680.91;4872108;29;20200;-69
2024/01/02 05:53:31;;;;;;;27.53;15.53;;;;;;;7.22;83.87;96682.41;4873090;29;20191;-66
2024/01/02 05:55:58;;;;;;;20.77;13.23;;;;;;;7.22;83.77;96681.56;4872503;29;20858;-68
2024/01/02 05:58:26;;;;;;;21.90;13.80;;;;;;;7.15;83.16;96687.84;4872283;29;20263;-68
2024/01/02 06:00:54;;;;;;;24.90;14.13;;;;;;;7.26;83.76;96698.56;4873414;29;20286;-66
2024/01/02 06:03:21;;;;;;;25.00;15.87;;;;;;;7.18;83.84;96701.44;4872123;29;20839;-67
2024/01/02 06:05:48;;;;;;;25.60;16.77;;;;;;;7.10;84.76;96694.91;4874250;29;20205;-69
2024/01/02 06:08:15;;;;;;;23.43;14.50;;;;;;;6.99;84.56;96708.16;4884112;29;20468;-69
2024/01/02 06:10:43;;;;;;;23.93;14.93;;;;;;;7.09;84.71;96716.41;4874025;29;20200;-68
2024/01/02 06:13:13;;;;;;;27.97;15.93;;;;;;;6.92;83.87;96654.41;4873406;29;20812;-68
2024/01/02 06:15:41;;;;;;;27.40;16.83;;;;;;;7.30;84.70;96711.28;4872379;29;20207;-65
2024/01/02 06:18:08;;;;;;;22.90;14.60;;;;;;;7.12;83.87;96705.97;4883051;29;20251;-67
2024/01/02 06:20:36;;;;;;;22.93;14.60;;;;;;;7.09;84.46;96735.25;4890830;29;20202;-67
2024/01/02 06:23:03;;;;;;;24.27;14.80;;;;;;;6.90;85.12;96728.25;4891550;29;20198;-64
2024/01/02 06:25:30;;;;;;;23.13;14.17;;;;;;;6.68;85.90;96720.47;4890384;29;20195;-68
2024/01/02 06:27:57;;;;;;;23.67;14.87;;;;;;;6.56;86.60;96705.47;4891267;29;20202;-64
2024/01/02 06:30:24;;;;;;;23.70;13.37;;;;;;;6.89;87.01;96724.00;4890938;29;20537;-64
2024/01/02 06:32:52;;;;;;;21.73;13.87;;;;;;;6.91;86.14;96722.22;4889408;29;20229;-65
2024/01/02 06:35:19;;;;;;;21.50;13.63;;;;;;;7.21;85.38;96739.94;4890848;29;20210;-67
2024/01/02 06:37:47;;;;;;;21.03;14.30;;;;;;;7.20;85.57;96746.00;4904592;29;20238;-65
2024/01/02 06:40:14;;;;;;;23.20;14.03;;;;;;;7.12;84.17;96729.16;4891453;29;20207;-70
2024/01/02 06:42:42;;;;;;;23.03;14.20;;;;;;;7.56;83.52;96750.66;4890285;29;20249;-67
2024/01/02 06:45:19;;;;;;;23.30;13.70;;;;;;;7.39;84.05;96748.72;4866164;29;20260;-67
2024/01/02 06:47:46;;;;;;;19.50;12.77;;;;;;;7.46;84.32;96746.75;4870343;29;20203;-67
2024/01/02 06:50:14;;;;;;;18.00;13.03;;;;;;;7.35;84.60;96752.31;4872430;29;20290;-67
2024/01/02 06:52:42;;;;;;;17.60;11.97;;;;;;;7.50;85.01;96754.28;4862817;29;20272;-68
2024/01/02 06:55:48;;;;;;;18.63;12.50;;;;;;;7.45;85.60;96763.94;4870634;29;20614;-67
2024/01/02 06:59:09;;;;;;;18.13;12.07;;;;;;;7.51;84.41;96761.13;4869801;29;20245;-70
2024/01/02 07:02:31;;;;;;;18.93;11.17;;;;;;;7.78;83.53;96756.66;4861806;29;20204;-68
2024/01/02 07:05:52;;;;;;;22.17;13.37;;;;;;;7.64;84.49;96762.34;4871673;29;20279;-70
2024/01/02 07:09:13;;;;;;;20.60;12.90;;;;;;;7.69;84.86;96770.72;4870859;29;20211;-69
2024/01/02 07:12:33;;;;;;;21.40;12.70;;;;;;;7.44;85.42;96764.00;4871724;29;20235;-66
2024/01/02 07:15:54;;;;;;;24.97;15.43;;;;;;;7.84;84.96;96757.25;4872181;29;20595;-68
2024/01/02 07:19:14;;;;;;;19.63;12.93;;;;;;;7.84;85.03;96764.97;4875383;29;20315;-67
2024/01/02 07:22:36;;;;;;;21.67;13.00;;;;;;;7.99;85.47;96760.97;4874267;29;20274;-69
2024/01/02 07:25:57;;;;;;;20.47;12.57;;;;;;;7.85;84.71;96743.44;4874778;29;20196;-68
2024/01/02 07:29:17;;;;;;;23.97;16.77;;;;;;;7.96;85.17;96754.19;4875636;29;20196;-69
2024/01/02 07:32:38;;;;;;;25.47;15.67;;;;;;;8.03;84.82;96747.88;4874826;29;20188;-65
2024/01/02 07:35:59;;;;;;;23.30;14.93;;;;;;;8.02;85.84;96743.63;4875003;29;20223;-63
2024/01/02 07:39:20;;;;;;;26.50;15.67;;;;;;;8.22;85.01;96748.78;4871785;29;20258;-63
2024/01/02 07:42:41;;;;;;;23.70;14.93;;;;;;;8.06;84.60;96737.44;4875634;29;20203;-64
2024/01/02 07:46:02;;;;;;;24.17;15.03;;;;;;;8.29;84.76;96746.84;4875583;29;20223;-64
2024/01/02 07:49:22;;;;;;;23.47;13.63;;;;;;;8.29;84.03;96751.16;4874618;29;20219;-63
2024/01/02 07:52:43;;;;;;;39.93;23.80;;;;;;;8.27;86.09;96755.53;4873732;29;20663;-64
2024/01/02 07:56:04;;;;;;;50.63;29.17;;;;;;;8.10;87.02;96762.19;4873810;29;20610;-64
2024/01/02 07:59:25;;;;;;;47.67;29.10;;;;;;;8.16;87.31;96761.94;4874470;29;20249;-63
2024/01/02 08:02:45;;;;;;;38.83;23.90;;;;;;;7.98;87.97;96762.69;4856050;29;20535;-69
2024/01/02 08:06:06;;;;;;;30.83;19.97;;;;;;;8.04;87.34;96771.91;4853278;29;20238;-65
2024/01/02 08:09:27;;;;;;;34.00;21.10;;;;;;;8.14;87.03;96752.59;4859757;29;20526;-69
2024/01/02 08:12:48;;;;;;;32.40;20.30;;;;;;;8.44;86.43;96772.00;4861368;29;20193;-65
2024/01/02 08:15:30;;;;;;;23.23;16.17;;;;;;;8.63;85.71;96770.34;4864644;29;20229;-67
2024/01/02 08:18:10;;;;;;;27.73;18.43;;;;;;;8.52;86.15;96748.44;4859345;29;20307;-65
2024/01/02 08:20:43;;;;;;;32.67;20.20;;;;;;;8.51;86.01;96772.59;4856090;29;20707;-66
2024/01/02 08:23:11;;;;;;;32.87;20.27;;;;;;;8.54;86.40;96788.78;4856768;29;20208;-67
2024/01/02 08:25:39;;;;;;;38.53;23.90;;;;;;;8.47;86.49;96773.63;4855323;29;20580;-65
2024/01/02 08:28:07;;;;;;;46.47;27.17;;;;;;;8.12;88.12;96762.97;4856199;29;20213;-66
2024/01/02 08:30:35;;;;;;;49.67;28.83;;;;;;;8.50;87.53;96788.97;4853558;29;20197;-65
2024/01/02 08:33:02;;;;;;;44.83;27.50;;;;;;;8.49;86.95;96764.09;4856035;29;20211;-66
2024/01/02 08:35:29;;;;;;;47.97;29.83;;;;;;;8.22;87.45;96772.00;4870853;29;20603;-64
2024/01/02 08:37:56;;;;;;;44.20;29.27;;;;;;;8.26;88.04;96777.09;4874147;29;20221;-64
2024/01/02 08:40:23;;;;;;;42.87;25.60;;;;;;;7.89;89.49;96783.66;4873906;29;20282;-69
2024/01/02 08:42:54;;;;;;;39.47;25.20;;;;;;;7.70;89.77;96782.72;4872220;29;20207;-67
2024/01/02 08:45:21;;;;;;;35.60;24.23;;;;;;;7.71;89.78;96794.69;4887193;29;20631;-69
2024/01/02 08:47:48;;;;;;;45.43;26.50;;;;;;;7.97;90.19;96802.28;4875075;29;20215;-66
2024/01/02 08:50:16;;;;;;;39.63;28.20;;;;;;;8.14;88.96;96794.69;4893671;29;20191;-70
2024/01/02 08:52:47;;;;;;;55.23;34.00;;;;;;;8.21;88.74;96800.44;4877496;29;20845;-65
2024/01/02 08:55:14;;;;;;;58.80;36.03;;;;;;;8.45;88.50;96793.50;4895928;29;20275;-63
2024/01/02 08:57:41;;;;;;;61.27;41.40;;;;;;;8.26;87.77;96748.72;4893042;29;20254;-64
2024/01/02 09:00:10;;;;;;;53.13;38.23;;;;;;;8.77;87.10;96808.47;4906725;29;20586;-64
2024/01/02 09:02:37;;;;;;;55.27;35.67;;;;;;;8.53;87.14;96810.31;4891320;29;20203;-63
2024/01/02 09:05:05;;;;;;;37.07;25.43;;;;;;;8.64;86.95;96799.56;4891884;29;20192;-66
2024/01/02 09:07:32;;;;;;;41.07;26.27;;;;;;;8.59;86.60;96789.44;4891671;29;20206;-67
2024/01/02 09:09:59;;;;;;;27.20;19.53;;;;;;;8.60;85.78;96816.06;4891452;29;20218;-63
2024/01/02 09:12:28;;;;;;;32.90;20.10;;;;;;;8.75;85.74;96818.03;4892226;29;20253;-66
2024/01/02 09:14:55;;;;;;;28.10;18.50;;;;;;;8.93;84.39;96812.06;4889853;29;20579;-66
2024/01/02 09:17:23;;;;;;;30.40;19.83;;;;;;;8.86;84.46;96792.59;4891859;29;20352;-68
2024/01/02 09:19:52;;;;;;;32.23;20.03;;;;;;;8.89;85.16;96793.28;4891959;29;20207;-67
2024/01/02 09:22:19;;;;;;;30.10;19.33;;;;;;;8.99;85.43;96788.56;4889737;29;20322;-67
2024/01/02 09:24:48;;;;;;;33.10;20.80;;;;;;;9.13;84.98;96799.13;4890595;29;20280;-69
2024/01/02 09:27:17;;;;;;;34.13;21.53;;;;;;;9.15;84.56;96799.06;4885599;29;20289;-67
2024/01/02 09:29:45;;;;;;;33.83;18.20;;;;;;;9.36;82.80;96817.03;4887178;29;20598;-67
2024/01/02 09:32:16;;;;;;;27.03;19.37;;;;;;;9.39;82.15;96811.75;4891256;29;20632;-66
2024/01/02 09:34:43;;;;;;;32.60;19.60;;;;;;;8.95;84.08;96797.34;4877199;29;20274;-66
2024/01/02 09:37:15;;;;;;;27.93;19.43;;;;;;;9.06;85.01;96807.22;4874495;29;20240;-69
2024/01/02 09:39:43;;;;;;;32.60;20.83;;;;;;;9.17;84.81;96790.34;4872358;29;20227;-65
2024/01/02 09:42:34;;;;;;;26.90;18.33;;;;;;;9.23;84.47;96790.09;4890929;29;20208;-66
2024/01/02 09:45:47;;;;;;;21.53;14.57;;;;;;;9.37;84.40;96807.53;4893526;29;20214;-70
2024/01/02 09:48:28;;;;;;;19.50;14.13;;;;;;;9.19;84.54;96803.19;4872996;29;20226;-70
2024/01/02 09:51:30;;;;;;;20.47;13.70;;;;;;;9.28;84.60;96803.63;4871552;29;20230;-67
2024/01/02 09:54:37;;;;;;;25.27;16.50;;;;;;;9.25;85.92;96821.00;4854976;29;20204;-66
2024/01/02 09:57:24;;;;;;;25.60;16.10;;;;;;;9.15;85.95;96786.97;4842721;29;20610;-67
2024/01/02 10:00:02;;;;;;;19.10;13.73;;;;;;;9.21;85.86;96806.56;4852627;29;20212;-68
2024/01/02 10:03:06;;;;;;;19.97;13.03;;;;;;;9.29;85.90;96815.66;4853474;29;20239;-65
2024/01/02 10:05:39;;;;;;;23.13;15.43;;;;;;;9.27;86.36;96812.28;4852443;29;20208;-68
2024/01/02 10:08:45;;;;;;;21.60;14.87;;;;;;;9.41;86.37;96809.94;4854203;29;20204;-71
2024/01/02 10:11:22;;;;;;;28.30;17.20;;;;;;;9.37;86.80;96818.72;4853290;29;20673;-71
2024/01/02 10:14:02;;;;;;;26.97;15.13;;;;;;;9.35;87.79;96811.94;4853358;29;20308;-68
2024/01/02 10:16:36;;;;;;;21.20;14.70;;;;;;;9.36;87.65;96808.44;4885743;29;20230;-63
2024/01/02 10:19:25;;;;;;;23.83;15.67;;;;;;;9.24;88.70;96806.41;4878022;29;20238;-67
2024/01/02 10:22:19;;;;;;;20.13;12.57;;;;;;;8.96;88.83;96793.88;4854039;29;20193;-68
2024/01/02 10:24:49;;;;;;;38.17;23.80;;;;;;;8.81;90.38;96792.78;4871952;29;20223;-64
2024/01/02 10:27:25;;;;;;;26.00;17.77;;;;;;;9.02;90.06;96798.78;4869620;29;20196;-65
2024/01/02 10:30:03;;;;;;;23.50;14.07;;;;;;;8.99;90.20;96793.72;4870944;29;20200;-66
2024/01/02 10:32:40;;;;;;;23.73;14.27;;;;;;;9.10;89.97;96798.44;4871158;29;20220;-67
2024/01/02 10:35:18;;;;;;;20.20;13.67;;;;;;;8.90;89.80;96766.56;4872191;29;20577;-66
2024/01/02 10:37:53;;;;;;;17.60;11.83;;;;;;;8.66;91.54;96769.34;4871696;29;20291;-66
2024/01/02 10:40:23;;;;;;;25.50;15.03;;;;;;;8.87;91.82;96791.69;4870949;29;20187;-66
2024/01/02 10:43:04;;;;;;;25.33;16.23;;;;;;;8.81;91.64;96791.94;4872358;29;20200;-65
2024/01/02 10:45:40;;;;;;;19.30;14.00;;;;;;;8.77;91.69;96772.31;4871134;29;20230;-64
2024/01/02 10:48:23;;;;;;;22.10;15.87;;;;;;;8.76;92.66;96775.78;4870533;29;20210;-65
2024/01/02 10:51:08;;;;;;;24.97;17.10;;;;;;;8.76;92.98;96770.63;4872931;29;20255;-65
2024/01/02 10:53:48;;;;;;;28.13;18.37;;;;;;;8.81;92.70;96777.28;4873059;29;20279;-65
2024/01/02 10:56:35;;;;;;;32.93;18.63;;;;;;;8.89;92.54;96767.47;4892227;29;20533;-62
2024/01/02 10:59:40;;;;;;;32.10;19.30;;;;;;;8.87;92.71;96768.44;4895545;29;20636;-64
2024/01/02 11:02:27;;;;;;;27.60;17.73;;;;;;;8.72;93.56;96767.34;4893325;29;20211;-67
2024/01/02 11:05:03;;;;;;;29.00;19.20;;;;;;;8.89;93.22;96759.72;4893261;29;20210;-64
2024/01/02 11:07:35;;;;;;;32.53;20.33;;;;;;;8.71;93.37;96764.84;4885527;29;20211;-65
2024/01/02 11:10:13;;;;;;;32.80;19.53;;;;;;;8.45;94.55;96762.53;4875174;29;20688;-63
2024/01/02 11:12:58;;;;;;;33.23;20.73;;;;;;;8.60;94.72;96751.53;4858746;29;20315;-67
2024/01/02 11:15:43;;;;;;;30.07;20.40;;;;;;;8.77;94.03;96731.88;4874233;29;20554;-65
2024/01/02 11:18:13;;;;;;;29.30;19.27;;;;;;;8.92;93.89;96738.09;4864385;29;20236;-68
2024/01/02 11:21:02;;;;;;;39.87;24.07;;;;;;;8.78;92.35;96727.50;4854952;29;20295;-70
2024/01/02 11:23:40;;;;;;;31.67;21.07;;;;;;;8.92;92.69;96720.03;4855844;29;20204;-65
2024/01/02 11:26:20;;;;;;;29.63;19.23;;;;;;;8.87;92.59;96660.84;4856926;29;20200;-66
2024/01/02 11:28:51;;;;;;;34.37;21.83;;;;;;;9.11;91.41;96723.44;4854283;29;20653;-65
2024/01/02 11:31:21;;;;;;;29.90;20.93;;;;;;;8.90;90.93;96719.25;4855183;29;20193;-65
2024/01/02 11:34:19;;;;;;;26.50;18.03;;;;;;;9.22;91.04;96713.47;4856159;29;20203;-64
2024/01/02 11:37:05;;;;;;;25.10;16.17;;;;;;;9.16;90.49;96711.16;4856050;29;20220;-64
2024/01/02 11:40:15;;;;;;;17.03;11.63;;;;;;;8.83;90.97;96698.03;4857037;29;20240;-65
2024/01/02 11:42:52;;;;;;;20.67;13.43;;;;;;;9.34;90.64;96694.81;4828235;29;20208;-66
2024/01/02 11:45:21;;;;;;;27.13;16.10;;;;;;;9.57;89.70;96676.50;4874306;29;20211;-65
2024/01/02 11:48:05;;;;;;;27.00;19.03;;;;;;;9.83;88.87;96699.34;4875080;29;20214;-66
2024/01/02 11:50:50;;;;;;;33.73;21.70;;;;;;;9.96;88.62;96709.09;4872130;29;20235;-64
2024/01/02 11:53:23;;;;;;;21.97;14.20;;;;;;;10.07;87.19;96709.41;4874713;29;20192;-63
2024/01/02 11:56:06;;;;;;;13.33;9.43;;;;;;;9.73;86.27;96651.56;4874311;29;20196;-65
2024/01/02 11:58:57;;;;;;;15.20;11.33;;;;;;;9.95;87.29;96713.44;4872197;29;20239;-68
2024/01/02 12:01:47;;;;;;;12.53;9.50;;;;;;;9.92;87.40;96713.59;4874646;29;20687;-69